sensor_id;sensor_type;location;lat;lon;timestamp;pressure;altitude;pressure_sealevel;temperature;humidity
22662;BME280;11497;52.222;21.246;2022-08-14T00:02:14;100225.47;;;20.26;96.76
22662;BME280;11497;52.222;21.246;2022-08-14T00:04:42;100219.03;;;20.18;96.98
22662;BME280;11497;52.222;21.246;2022-08-14T00:07:12;100220.72;;;20.19;96.81
22662;BME280;11497;52.222;21.246;2022-08-14T00:09:44;100214.56;;;20.18;97.00
22662;BME280;11497;52.222;21.246;2022-08-14T00:12:35;100214.75;;;20.04;96.80
22662;BME280;11497;52.222;21.246;2022-08-14T00:15:23;100213.63;;;19.96;98.21
22662;BME280;11497;52.222;21.246;2022-08-14T00:17:52;100216.16;;;19.86;99.44
22662;BME280;11497;52.222;21.246;2022-08-14T00:20:23;100210.22;;;19.82;100.00
22662;BME280;11497;52.222;21.246;2022-08-14T00:23:09;100210.44;;;19.79;100.00
22662;BME280;11497;52.222;21.246;2022-08-14T00:25:52;100212.38;;;19.77;100.00
22662;BME280;11497;52.222;21.246;2022-08-14T00:28:35;100204.75;;;19.73;100.00
22662;BME280;11497;52.222;21.246;2022-08-14T00:31:05;100205.38;;;19.76;100.00
22662;BME280;11497;52.222;21.246;2022-08-14T00:33:36;100198.25;;;19.77;100.00
22662;BME280;11497;52.222;21.246;2022-08-14T00:36:21;100197.34;;;19.89;100.00
22662;BME280;11497;52.222;21.246;2022-08-14T00:39:12;100195.03;;;19.96;100.00
22662;BME280;11497;52.222;21.246;2022-08-14T00:41:41;100202.22;;;20.06;100.00
22662;BME280;11497;52.222;21.246;2022-08-14T00:44:09;100196.25;;;19.91;100.00
22662;BME280;11497;52.222;21.246;2022-08-14T00:46:38;100196.72;;;19.85;100.00
22662;BME280;11497;52.222;21.246;2022-08-14T00:49:08;100196.84;;;19.84;100.00
22662;BME280;11497;52.222;21.246;2022-08-14T00:51:41;100204.34;;;19.90;100.00
22662;BME280;11497;52.222;21.246;2022-08-14T00:54:11;100196.59;;;19.87;100.00
22662;BME280;11497;52.222;21.246;2022-08-14T00:56:52;100197.22;;;19.90;100.00
22662;BME280;11497;52.222;21.246;2022-08-14T00:59:26;100194.56;;;19.90;100.00
22662;BME280;11497;52.222;21.246;2022-08-14T01:01:59;100181.53;;;19.87;100.00
22662;BME280;11497;52.222;21.246;2022-08-14T01:04:29;100173.56;;;19.87;100.00
22662;BME280;11497;52.222;21.246;2022-08-14T01:07:20;100175.09;;;19.79;100.00
22662;BME280;11497;52.222;21.246;2022-08-14T01:09:57;100175.53;;;19.73;100.00
22662;BME280;11497;52.222;21.246;2022-08-14T01:12:26;100166.25;;;19.78;100.00
22662;BME280;11497;52.222;21.246;2022-08-14T01:15:07;100162.16;;;19.74;100.00
22662;BME280;11497;52.222;21.246;2022-08-14T01:17:41;100161.13;;;19.88;100.00
22662;BME280;11497;52.222;21.246;2022-08-14T01:20:28;100157.00;;;19.95;97.54
22662;BME280;11497;52.222;21.246;2022-08-14T01:23:16;100159.16;;;19.79;97.04
22662;BME280;11497;52.222;21.246;2022-08-14T01:25:49;100166.88;;;19.82;95.84
22662;BME280;11497;52.222;21.246;2022-08-14T01:28:19;100170.56;;;19.68;96.25
22662;BME280;11497;52.222;21.246;2022-08-14T01:31:13;100165.31;;;19.55;96.99
22662;BME280;11497;52.222;21.246;2022-08-14T01:33:45;100164.91;;;19.49;98.28
22662;BME280;11497;52.222;21.246;2022-08-14T01:36:34;100162.59;;;19.44;99.02
22662;BME280;11497;52.222;21.246;2022-08-14T01:39:14;100165.38;;;19.43;99.07
22662;BME280;11497;52.222;21.246;2022-08-14T01:41:46;100173.44;;;19.41;99.11
22662;BME280;11497;52.222;21.246;2022-08-14T01:44:23;100172.47;;;19.42;98.94
22662;BME280;11497;52.222;21.246;2022-08-14T01:47:02;100175.13;;;19.42;99.02
22662;BME280;11497;52.222;21.246;2022-08-14T01:49:32;100175.13;;;19.42;99.20
22662;BME280;11497;52.222;21.246;2022-08-14T01:52:12;100181.41;;;19.41;99.42
22662;BME280;11497;52.222;21.246;2022-08-14T01:55:01;100183.31;;;19.39;99.38
22662;BME280;11497;52.222;21.246;2022-08-14T01:57:34;100181.50;;;19.40;99.66
22662;BME280;11497;52.222;21.246;2022-08-14T02:00:24;100188.28;;;19.44;99.59
22662;BME280;11497;52.222;21.246;2022-08-14T02:02:55;100185.97;;;19.39;99.33
22662;BME280;11497;52.222;21.246;2022-08-14T02:05:27;100184.16;;;19.40;99.19
22662;BME280;11497;52.222;21.246;2022-08-14T02:08:02;100183.75;;;19.33;98.98
22662;BME280;11497;52.222;21.246;2022-08-14T02:10:40;100187.44;;;19.43;99.40
22662;BME280;11497;52.222;21.246;2022-08-14T02:13:15;100182.75;;;19.47;98.89
22662;BME280;11497;52.222;21.246;2022-08-14T02:15:44;100182.88;;;19.45;98.50
22662;BME280;11497;52.222;21.246;2022-08-14T02:18:14;100170.34;;;19.47;98.44
22662;BME280;11497;52.222;21.246;2022-08-14T02:20:45;100167.38;;;19.39;98.60
22662;BME280;11497;52.222;21.246;2022-08-14T02:23:14;100166.91;;;19.58;97.95
22662;BME280;11497;52.222;21.246;2022-08-14T02:26:00;100161.47;;;19.59;96.99
22662;BME280;11497;52.222;21.246;2022-08-14T02:28:52;100165.59;;;19.64;96.75
22662;BME280;11497;52.222;21.246;2022-08-14T02:31:31;100154.47;;;19.58;96.27
22662;BME280;11497;52.222;21.246;2022-08-14T02:34:12;100157.34;;;19.55;96.29
22662;BME280;11497;52.222;21.246;2022-08-14T02:36:54;100158.13;;;19.45;96.75
22662;BME280;11497;52.222;21.246;2022-08-14T02:39:33;100157.00;;;19.36;97.12
22662;BME280;11497;52.222;21.246;2022-08-14T02:42:07;100159.09;;;19.44;97.66
22662;BME280;11497;52.222;21.246;2022-08-14T02:44:41;100153.50;;;19.36;98.17
22662;BME280;11497;52.222;21.246;2022-08-14T02:47:17;100154.56;;;19.33;98.53
22662;BME280;11497;52.222;21.246;2022-08-14T02:49:48;100150.97;;;19.34;98.46
22662;BME280;11497;52.222;21.246;2022-08-14T02:52:22;100141.00;;;19.25;98.81
22662;BME280;11497;52.222;21.246;2022-08-14T02:55:10;100146.31;;;19.25;99.03
22662;BME280;11497;52.222;21.246;2022-08-14T02:57:49;100147.38;;;19.22;99.27
22662;BME280;11497;52.222;21.246;2022-08-14T03:00:33;100148.47;;;19.20;99.51
22662;BME280;11497;52.222;21.246;2022-08-14T03:03:06;100141.47;;;19.19;99.68
22662;BME280;11497;52.222;21.246;2022-08-14T03:05:35;100141.91;;;19.13;100.00
22662;BME280;11497;52.222;21.246;2022-08-14T03:08:12;100138.25;;;19.26;100.00
22662;BME280;11497;52.222;21.246;2022-08-14T03:10:43;100136.16;;;19.19;99.77
22662;BME280;11497;52.222;21.246;2022-08-14T03:13:17;100137.00;;;19.19;100.00
22662;BME280;11497;52.222;21.246;2022-08-14T03:15:49;100138.47;;;19.23;100.00
22662;BME280;11497;52.222;21.246;2022-08-14T03:18:26;100143.03;;;19.21;100.00
22662;BME280;11497;52.222;21.246;2022-08-14T03:21:01;100135.81;;;19.23;100.00
22662;BME280;11497;52.222;21.246;2022-08-14T03:23:29;100138.34;;;19.25;100.00
22662;BME280;11497;52.222;21.246;2022-08-14T03:26:07;100143.84;;;19.35;100.00
22662;BME280;11497;52.222;21.246;2022-08-14T03:28:50;100134.38;;;19.43;99.48
22662;BME280;11497;52.222;21.246;2022-08-14T03:31:19;100131.94;;;19.40;98.66
22662;BME280;11497;52.222;21.246;2022-08-14T03:33:55;100134.59;;;19.40;99.03
22662;BME280;11497;52.222;21.246;2022-08-14T03:36:27;100125.03;;;19.38;99.03
22662;BME280;11497;52.222;21.246;2022-08-14T03:39:18;100131.59;;;19.45;99.19
22662;BME280;11497;52.222;21.246;2022-08-14T03:41:53;100122.84;;;19.55;99.02
22662;BME280;11497;52.222;21.246;2022-08-14T03:44:22;100123.56;;;19.57;98.46
22662;BME280;11497;52.222;21.246;2022-08-14T03:47:10;100121.19;;;19.66;98.16
22662;BME280;11497;52.222;21.246;2022-08-14T03:49:43;100130.50;;;19.71;97.48
22662;BME280;11497;52.222;21.246;2022-08-14T03:52:17;100126.78;;;19.74;97.35
22662;BME280;11497;52.222;21.246;2022-08-14T03:55:10;100125.34;;;19.81;97.22
22662;BME280;11497;52.222;21.246;2022-08-14T03:57:39;100125.47;;;19.79;97.00
22662;BME280;11497;52.222;21.246;2022-08-14T04:00:11;100140.56;;;19.79;96.99
22662;BME280;11497;52.222;21.246;2022-08-14T04:03:00;100133.78;;;19.75;97.21
22662;BME280;11497;52.222;21.246;2022-08-14T04:05:29;100144.91;;;19.80;97.06
22662;BME280;11497;52.222;21.246;2022-08-14T04:08:10;100135.25;;;19.79;96.91
22662;BME280;11497;52.222;21.246;2022-08-14T04:10:58;100132.97;;;19.85;96.65
22662;BME280;11497;52.222;21.246;2022-08-14T04:13:29;100129.97;;;19.90;96.85
22662;BME280;11497;52.222;21.246;2022-08-14T04:16:19;100137.44;;;19.96;96.70
22662;BME280;11497;52.222;21.246;2022-08-14T04:18:52;100140.47;;;19.91;96.54
22662;BME280;11497;52.222;21.246;2022-08-14T04:21:22;100139.38;;;19.94;96.34
22662;BME280;11497;52.222;21.246;2022-08-14T04:23:52;100146.38;;;19.95;96.58
22662;BME280;11497;52.222;21.246;2022-08-14T04:26:27;100143.75;;;20.06;96.47
22662;BME280;11497;52.222;21.246;2022-08-14T04:29:11;100141.50;;;20.24;96.01
22662;BME280;11497;52.222;21.246;2022-08-14T04:31:43;100147.94;;;20.33;94.83
22662;BME280;11497;52.222;21.246;2022-08-14T04:34:31;100143.84;;;20.51;93.83
22662;BME280;11497;52.222;21.246;2022-08-14T04:37:03;100150.38;;;20.58;93.39
22662;BME280;11497;52.222;21.246;2022-08-14T04:39:53;100150.50;;;20.68;92.63
22662;BME280;11497;52.222;21.246;2022-08-14T04:42:42;100151.13;;;20.71;92.70
22662;BME280;11497;52.222;21.246;2022-08-14T04:45:28;100143.63;;;20.76;92.27
22662;BME280;11497;52.222;21.246;2022-08-14T04:48:16;100163.91;;;20.88;92.00
22662;BME280;11497;52.222;21.246;2022-08-14T04:51:07;100155.91;;;21.00;91.38
22662;BME280;11497;52.222;21.246;2022-08-14T04:53:39;100159.78;;;21.07;90.75
22662;BME280;11497;52.222;21.246;2022-08-14T04:56:15;100156.88;;;21.10;90.42
22662;BME280;11497;52.222;21.246;2022-08-14T04:59:03;100158.31;;;21.14;89.80
22662;BME280;11497;52.222;21.246;2022-08-14T05:01:41;100160.84;;;21.15;89.46
22662;BME280;11497;52.222;21.246;2022-08-14T05:04:20;100151.28;;;21.24;89.42
22662;BME280;11497;52.222;21.246;2022-08-14T05:06:51;100151.94;;;21.48;89.19
22662;BME280;11497;52.222;21.246;2022-08-14T05:09:22;100162.75;;;21.68;88.67
22662;BME280;11497;52.222;21.246;2022-08-14T05:11:51;100161.44;;;21.94;87.57
22662;BME280;11497;52.222;21.246;2022-08-14T05:14:20;100153.94;;;21.88;86.59
22662;BME280;11497;52.222;21.246;2022-08-14T05:17:10;100154.56;;;22.33;84.99
22662;BME280;11497;52.222;21.246;2022-08-14T05:19:38;100150.72;;;22.26;84.76
22662;BME280;11497;52.222;21.246;2022-08-14T05:22:26;100158.53;;;22.39;84.23
22662;BME280;11497;52.222;21.246;2022-08-14T05:24:54;100145.53;;;22.55;83.85
22662;BME280;11497;52.222;21.246;2022-08-14T05:27:22;100147.06;;;22.48;83.22
22662;BME280;11497;52.222;21.246;2022-08-14T05:29:54;100151.31;;;22.60;83.10
22662;BME280;11497;52.222;21.246;2022-08-14T05:32:24;100147.31;;;22.75;83.25
22662;BME280;11497;52.222;21.246;2022-08-14T05:34:58;100156.28;;;22.95;82.16
22662;BME280;11497;52.222;21.246;2022-08-14T05:37:27;100161.03;;;23.01;81.57
22662;BME280;11497;52.222;21.246;2022-08-14T05:39:58;100147.84;;;23.09;80.63
22662;BME280;11497;52.222;21.246;2022-08-14T05:42:27;100138.72;;;23.12;80.17
22662;BME280;11497;52.222;21.246;2022-08-14T05:45:01;100140.84;;;23.18;80.40
22662;BME280;11497;52.222;21.246;2022-08-14T05:47:31;100145.50;;;23.16;80.38
22662;BME280;11497;52.222;21.246;2022-08-14T05:50:14;100147.72;;;23.11;80.55
22662;BME280;11497;52.222;21.246;2022-08-14T05:52:46;100152.31;;;22.89;81.09
22662;BME280;11497;52.222;21.246;2022-08-14T05:55:15;100153.16;;;23.00;81.07
22662;BME280;11497;52.222;21.246;2022-08-14T06:00:31;100145.06;;;23.11;81.37
22662;BME280;11497;52.222;21.246;2022-08-14T06:03:12;100136.53;;;23.36;80.69
22662;BME280;11497;52.222;21.246;2022-08-14T06:05:46;100135.56;;;23.37;80.09
22662;BME280;11497;52.222;21.246;2022-08-14T06:08:30;100137.97;;;23.69;78.87
22662;BME280;11497;52.222;21.246;2022-08-14T06:11:08;100140.38;;;23.82;78.01
22662;BME280;11497;52.222;21.246;2022-08-14T06:13:42;100141.03;;;23.84;77.02
22662;BME280;11497;52.222;21.246;2022-08-14T06:16:16;100140.66;;;23.79;76.82
22662;BME280;11497;52.222;21.246;2022-08-14T06:18:46;100148.53;;;23.71;76.85
22662;BME280;11497;52.222;21.246;2022-08-14T06:21:22;100141.22;;;23.73;76.74
22662;BME280;11497;52.222;21.246;2022-08-14T06:23:50;100137.13;;;23.69;77.08
22662;BME280;11497;52.222;21.246;2022-08-14T06:26:19;100144.03;;;23.62;77.51
22662;BME280;11497;52.222;21.246;2022-08-14T06:28:50;100137.41;;;23.66;77.24
22662;BME280;11497;52.222;21.246;2022-08-14T06:31:19;100135.59;;;23.76;77.54
22662;BME280;11497;52.222;21.246;2022-08-14T06:33:48;100141.41;;;24.28;76.97
22662;BME280;11497;52.222;21.246;2022-08-14T06:36:37;100136.03;;;24.47;75.13
22662;BME280;11497;52.222;21.246;2022-08-14T06:39:06;100143.06;;;24.48;74.86
22662;BME280;11497;52.222;21.246;2022-08-14T06:41:38;100149.63;;;24.63;74.41
22662;BME280;11497;52.222;21.246;2022-08-14T06:44:27;100147.44;;;24.76;72.84
22662;BME280;11497;52.222;21.246;2022-08-14T06:47:01;100146.25;;;24.88;72.63
22662;BME280;11497;52.222;21.246;2022-08-14T06:49:29;100144.56;;;24.87;72.17
22662;BME280;11497;52.222;21.246;2022-08-14T06:52:15;100143.00;;;25.58;71.43
22662;BME280;11497;52.222;21.246;2022-08-14T06:54:44;100152.28;;;26.25;68.80
22662;BME280;11497;52.222;21.246;2022-08-14T06:57:12;100144.94;;;26.52;66.19
22662;BME280;11497;52.222;21.246;2022-08-14T06:59:41;100151.91;;;26.71;65.78
22662;BME280;11497;52.222;21.246;2022-08-14T07:02:10;100148.59;;;26.77;64.71
22662;BME280;11497;52.222;21.246;2022-08-14T07:04:56;100153.00;;;27.29;63.26
22662;BME280;11497;52.222;21.246;2022-08-14T07:07:50;100146.84;;;27.77;61.75
22662;BME280;11497;52.222;21.246;2022-08-14T07:10:18;100153.59;;;27.97;60.69
22662;BME280;11497;52.222;21.246;2022-08-14T07:12:52;100153.03;;;28.18;59.67
22662;BME280;11497;52.222;21.246;2022-08-14T07:15:31;100148.88;;;28.24;58.63
22662;BME280;11497;52.222;21.246;2022-08-14T07:18:02;100155.56;;;28.44;57.53
22662;BME280;11497;52.222;21.246;2022-08-14T07:20:35;100156.91;;;28.48;56.85
22662;BME280;11497;52.222;21.246;2022-08-14T07:23:05;100159.97;;;28.04;57.91
22662;BME280;11497;52.222;21.246;2022-08-14T07:25:47;100153.91;;;27.94;58.77
22662;BME280;11497;52.222;21.246;2022-08-14T07:28:29;100154.09;;;28.01;58.71
22662;BME280;11497;52.222;21.246;2022-08-14T07:31:09;100157.94;;;27.98;58.86
22662;BME280;11497;52.222;21.246;2022-08-14T07:33:42;100156.78;;;28.01;58.72
22662;BME280;11497;52.222;21.246;2022-08-14T07:36:19;100160.31;;;28.01;58.58
22662;BME280;11497;52.222;21.246;2022-08-14T07:39:00;100155.94;;;28.08;58.22
22662;BME280;11497;52.222;21.246;2022-08-14T07:41:38;100154.25;;;27.91;58.60
22662;BME280;11497;52.222;21.246;2022-08-14T07:44:09;100155.25;;;27.74;59.01
22662;BME280;11497;52.222;21.246;2022-08-14T07:46:58;100154.59;;;27.88;59.20
22662;BME280;11497;52.222;21.246;2022-08-14T07:49:26;100155.75;;;27.86;59.03
22662;BME280;11497;52.222;21.246;2022-08-14T07:51:55;100144.69;;;27.72;59.33
22662;BME280;11497;52.222;21.246;2022-08-14T07:54:25;100151.06;;;28.12;59.40
22662;BME280;11497;52.222;21.246;2022-08-14T07:57:00;100140.34;;;29.37;56.40
22662;BME280;11497;52.222;21.246;2022-08-14T07:59:39;100150.63;;;29.88;53.96
22662;BME280;11497;52.222;21.246;2022-08-14T08:02:12;100143.44;;;29.80;53.63
22662;BME280;11497;52.222;21.246;2022-08-14T08:04:49;100149.03;;;29.93;52.74
22662;BME280;11497;52.222;21.246;2022-08-14T08:07:26;100141.28;;;30.65;51.50
22662;BME280;11497;52.222;21.246;2022-08-14T08:09:59;100145.13;;;32.28;48.20
22662;BME280;11497;52.222;21.246;2022-08-14T08:13:12;100149.00;;;32.82;45.00
22662;BME280;11497;52.222;21.246;2022-08-14T08:15:46;100147.69;;;32.36;45.29
22662;BME280;11497;52.222;21.246;2022-08-14T08:18:16;100155.75;;;32.30;45.25
22662;BME280;11497;52.222;21.246;2022-08-14T08:20:54;100151.56;;;32.90;44.35
22662;BME280;11497;52.222;21.246;2022-08-14T08:23:28;100152.00;;;33.00;43.41
22662;BME280;11497;52.222;21.246;2022-08-14T08:26:10;100155.34;;;33.63;43.29
22662;BME280;11497;52.222;21.246;2022-08-14T08:28:38;100163.94;;;33.99;41.60
22662;BME280;11497;52.222;21.246;2022-08-14T08:31:10;100152.63;;;33.63;41.50
22662;BME280;11497;52.222;21.246;2022-08-14T08:33:40;100153.72;;;33.14;42.98
22662;BME280;11497;52.222;21.246;2022-08-14T08:36:15;100145.72;;;32.93;43.28
22662;BME280;11497;52.222;21.246;2022-08-14T08:38:48;100143.19;;;33.39;42.52
22662;BME280;11497;52.222;21.246;2022-08-14T08:41:44;100139.44;;;34.65;40.83
22662;BME280;11497;52.222;21.246;2022-08-14T08:44:17;100147.63;;;34.26;40.87
22662;BME280;11497;52.222;21.246;2022-08-14T08:47:02;100140.88;;;33.43;41.79
22662;BME280;11497;52.222;21.246;2022-08-14T08:49:40;100136.50;;;32.81;42.92
22662;BME280;11497;52.222;21.246;2022-08-14T08:52:19;100128.19;;;32.89;43.36
22662;BME280;11497;52.222;21.246;2022-08-14T08:54:55;100145.56;;;33.88;41.83
22662;BME280;11497;52.222;21.246;2022-08-14T08:57:23;100139.69;;;33.65;42.03
22662;BME280;11497;52.222;21.246;2022-08-14T08:59:51;100134.94;;;34.97;40.39
22662;BME280;11497;52.222;21.246;2022-08-14T09:02:22;100135.75;;;36.24;38.35
22662;BME280;11497;52.222;21.246;2022-08-14T09:05:01;100136.56;;;37.04;36.81
22662;BME280;11497;52.222;21.246;2022-08-14T09:07:30;100129.50;;;37.86;34.84
22662;BME280;11497;52.222;21.246;2022-08-14T09:09:58;100131.59;;;37.61;34.72
22662;BME280;11497;52.222;21.246;2022-08-14T09:12:28;100119.13;;;37.05;34.87
22662;BME280;11497;52.222;21.246;2022-08-14T09:15:01;100124.81;;;36.06;36.35
22662;BME280;11497;52.222;21.246;2022-08-14T09:17:40;100119.69;;;35.66;37.16
22662;BME280;11497;52.222;21.246;2022-08-14T09:20:10;100120.63;;;35.85;37.54
22662;BME280;11497;52.222;21.246;2022-08-14T09:22:41;100116.00;;;35.54;37.90
22662;BME280;11497;52.222;21.246;2022-08-14T09:25:18;100110.91;;;35.95;37.92
22662;BME280;11497;52.222;21.246;2022-08-14T09:28:07;100116.91;;;35.73;37.66
22662;BME280;11497;52.222;21.246;2022-08-14T09:30:48;100116.25;;;34.63;38.19
22662;BME280;11497;52.222;21.246;2022-08-14T09:36:42;100105.00;;;33.47;40.62
22662;BME280;11497;52.222;21.246;2022-08-14T09:42:06;100114.19;;;32.44;42.39
22662;BME280;11497;52.222;21.246;2022-08-14T09:50:26;100108.97;;;35.08;39.43
22662;BME280;11497;52.222;21.246;2022-08-14T09:53:00;100108.19;;;35.64;37.67
22662;BME280;11497;52.222;21.246;2022-08-14T09:55:33;100101.06;;;35.94;36.82
22662;BME280;11497;52.222;21.246;2022-08-14T09:58:10;100093.56;;;36.51;36.38
22662;BME280;11497;52.222;21.246;2022-08-14T10:00:55;100100.03;;;37.35;34.97
22662;BME280;11497;52.222;21.246;2022-08-14T10:03:37;100093.72;;;36.38;35.09
22662;BME280;11497;52.222;21.246;2022-08-14T10:06:20;100088.13;;;34.89;37.10
22662;BME280;11497;52.222;21.246;2022-08-14T10:09:05;100091.13;;;33.09;39.82
22662;BME280;11497;52.222;21.246;2022-08-14T10:11:56;100086.06;;;32.45;41.70
22662;BME280;11497;52.222;21.246;2022-08-14T10:14:28;100082.88;;;31.79;43.03
22662;BME280;11497;52.222;21.246;2022-08-14T10:17:04;100080.38;;;30.99;45.24
22662;BME280;11497;52.222;21.246;2022-08-14T10:19:45;100077.00;;;30.75;46.20
22662;BME280;11497;52.222;21.246;2022-08-14T10:22:14;100072.13;;;30.86;47.01
22662;BME280;11497;52.222;21.246;2022-08-14T10:25:13;100063.78;;;31.02;47.08
22662;BME280;11497;52.222;21.246;2022-08-14T10:27:43;100058.03;;;31.26;47.23
22662;BME280;11497;52.222;21.246;2022-08-14T10:30:31;100053.78;;;31.38;47.46
22662;BME280;11497;52.222;21.246;2022-08-14T10:33:01;100053.78;;;31.60;45.89
22662;BME280;11497;52.222;21.246;2022-08-14T10:35:39;100048.25;;;31.25;46.85
22662;BME280;11497;52.222;21.246;2022-08-14T10:38:24;100054.44;;;31.19;46.76
22662;BME280;11497;52.222;21.246;2022-08-14T10:40:52;100046.91;;;31.15;47.22
22662;BME280;11497;52.222;21.246;2022-08-14T10:43:28;100048.50;;;31.09;47.24
22662;BME280;11497;52.222;21.246;2022-08-14T10:45:59;100050.06;;;31.18;47.35
22662;BME280;11497;52.222;21.246;2022-08-14T10:48:58;100047.72;;;31.36;47.17
22662;BME280;11497;52.222;21.246;2022-08-14T10:51:32;100047.41;;;30.89;47.71
22662;BME280;11497;52.222;21.246;2022-08-14T10:54:09;100049.09;;;30.90;47.79
22662;BME280;11497;52.222;21.246;2022-08-14T10:59:56;100047.59;;;30.07;48.85
22662;BME280;11497;52.222;21.246;2022-08-14T11:05:17;100044.91;;;29.69;50.87
22662;BME280;11497;52.222;21.246;2022-08-14T11:10:40;100036.81;;;29.69;51.54
22662;BME280;11497;52.222;21.246;2022-08-14T11:15:45;100035.75;;;29.56;52.71
22662;BME280;11497;52.222;21.246;2022-08-14T11:18:13;100030.06;;;29.51;52.57
22662;BME280;11497;52.222;21.246;2022-08-14T11:20:59;100030.28;;;29.64;52.61
22662;BME280;11497;52.222;21.246;2022-08-14T11:23:31;100032.97;;;30.01;51.86
22662;BME280;11497;52.222;21.246;2022-08-14T11:26:07;100022.66;;;30.05;52.24
22662;BME280;11497;52.222;21.246;2022-08-14T11:28:38;100026.38;;;30.19;51.35
22662;BME280;11497;52.222;21.246;2022-08-14T11:31:21;100030.75;;;30.20;51.56
22662;BME280;11497;52.222;21.246;2022-08-14T11:33:53;100029.78;;;29.83;51.65
22662;BME280;11497;52.222;21.246;2022-08-14T11:36:25;100020.72;;;29.91;51.98
22662;BME280;11497;52.222;21.246;2022-08-14T11:39:19;100022.97;;;29.72;51.59
22662;BME280;11497;52.222;21.246;2022-08-14T11:42:05;100023.47;;;29.53;52.47
22662;BME280;11497;52.222;21.246;2022-08-14T11:45:02;100019.06;;;29.37;52.19
22662;BME280;11497;52.222;21.246;2022-08-14T11:47:37;100022.94;;;29.35;53.00
22662;BME280;11497;52.222;21.246;2022-08-14T11:50:29;100019.78;;;29.31;52.85
22662;BME280;11497;52.222;21.246;2022-08-14T11:53:05;100019.88;;;29.61;53.16
22662;BME280;11497;52.222;21.246;2022-08-14T11:55:36;100010.03;;;29.97;52.97
22662;BME280;11497;52.222;21.246;2022-08-14T11:58:08;100014.00;;;30.09;52.18
22662;BME280;11497;52.222;21.246;2022-08-14T12:00:54;100012.50;;;30.22;51.56
22662;BME280;11497;52.222;21.246;2022-08-14T12:06:20;100005.59;;;30.34;50.84
22662;BME280;11497;52.222;21.246;2022-08-14T12:09:06;100005.59;;;30.34;51.79
22662;BME280;11497;52.222;21.246;2022-08-14T12:11:42;100001.44;;;30.17;50.75
22662;BME280;11497;52.222;21.246;2022-08-14T12:14:14;99995.56;;;30.28;50.59
22662;BME280;11497;52.222;21.246;2022-08-14T12:17:07;99986.25;;;30.16;51.83
22662;BME280;11497;52.222;21.246;2022-08-14T12:20:00;99993.34;;;30.17;52.93
22662;BME280;11497;52.222;21.246;2022-08-14T12:25:06;99985.13;;;30.25;50.99
22662;BME280;11497;52.222;21.246;2022-08-14T12:27:46;99985.09;;;29.95;51.18
22662;BME280;11497;52.222;21.246;2022-08-14T12:30:38;99989.41;;;29.75;51.55
22662;BME280;11497;52.222;21.246;2022-08-14T12:33:25;99994.84;;;29.52;52.82
22662;BME280;11497;52.222;21.246;2022-08-14T12:36:08;99995.00;;;29.51;53.11
22662;BME280;11497;52.222;21.246;2022-08-14T12:38:42;99990.88;;;29.63;53.26
22662;BME280;11497;52.222;21.246;2022-08-14T12:41:20;99998.16;;;29.77;53.31
22662;BME280;11497;52.222;21.246;2022-08-14T12:44:00;99994.59;;;29.91;52.28
22662;BME280;11497;52.222;21.246;2022-08-14T12:46:37;99982.59;;;29.79;52.49
22662;BME280;11497;52.222;21.246;2022-08-14T12:49:14;99985.75;;;29.97;52.34
22662;BME280;11497;52.222;21.246;2022-08-14T12:51:55;99972.78;;;30.16;51.89
22662;BME280;11497;52.222;21.246;2022-08-14T12:54:24;99980.03;;;30.15;52.08
22662;BME280;11497;52.222;21.246;2022-08-14T12:57:15;99971.56;;;30.18;52.51
22662;BME280;11497;52.222;21.246;2022-08-14T12:59:47;99969.31;;;30.22;52.24
22662;BME280;11497;52.222;21.246;2022-08-14T13:02:23;99964.13;;;30.05;51.57
22662;BME280;11497;52.222;21.246;2022-08-14T13:04:54;99957.75;;;29.98;51.75
22662;BME280;11497;52.222;21.246;2022-08-14T13:07:28;99951.91;;;30.09;52.44
22662;BME280;11497;52.222;21.246;2022-08-14T13:10:00;99945.88;;;30.07;52.04
22662;BME280;11497;52.222;21.246;2022-08-14T13:12:54;99941.31;;;30.23;52.15
22662;BME280;11497;52.222;21.246;2022-08-14T13:15:40;99932.06;;;30.32;52.00
22662;BME280;11497;52.222;21.246;2022-08-14T13:18:15;99924.84;;;30.18;52.01
22662;BME280;11497;52.222;21.246;2022-08-14T13:20:43;99927.63;;;30.09;51.62
22662;BME280;11497;52.222;21.246;2022-08-14T13:23:25;99914.06;;;29.88;52.13
22662;BME280;11497;52.222;21.246;2022-08-14T13:25:59;99910.81;;;29.78;52.69
22662;BME280;11497;52.222;21.246;2022-08-14T13:28:30;99903.44;;;29.72;53.01
22662;BME280;11497;52.222;21.246;2022-08-14T13:31:02;99910.06;;;29.84;53.25
22662;BME280;11497;52.222;21.246;2022-08-14T13:33:38;99908.00;;;29.86;52.87
22662;BME280;11497;52.222;21.246;2022-08-14T13:36:08;99895.88;;;29.97;52.91
22662;BME280;11497;52.222;21.246;2022-08-14T13:38:58;99901.09;;;29.98;53.40
22662;BME280;11497;52.222;21.246;2022-08-14T13:41:27;99902.69;;;30.07;53.18
22662;BME280;11497;52.222;21.246;2022-08-14T13:44:03;99906.22;;;29.93;53.70
22662;BME280;11497;52.222;21.246;2022-08-14T13:46:34;99913.88;;;30.04;53.16
22662;BME280;11497;52.222;21.246;2022-08-14T13:49:02;99903.25;;;30.18;52.20
22662;BME280;11497;52.222;21.246;2022-08-14T13:51:34;99911.75;;;30.36;52.11
22662;BME280;11497;52.222;21.246;2022-08-14T13:54:05;99918.59;;;30.53;51.71
22662;BME280;11497;52.222;21.246;2022-08-14T13:56:41;99907.44;;;30.20;52.35
22662;BME280;11497;52.222;21.246;2022-08-14T13:59:10;99909.28;;;30.20;53.39
22662;BME280;11497;52.222;21.246;2022-08-14T14:01:42;99905.28;;;30.16;51.90